sensor_id;sensor_type;location;lat;lon;timestamp;P1;durP1;ratioP1;P2;durP2;ratioP2
1995;SDS011;38556;47.068;15.408;2022-09-09T00:00:57;207.77;;;194.90;;
1995;SDS011;38556;47.068;15.408;2022-09-09T00:03:31;218.53;;;205.97;;
1995;SDS011;38556;47.068;15.408;2022-09-09T00:06:08;225.23;;;212.30;;
1995;SDS011;38556;47.068;15.408;2022-09-09T00:08:45;197.90;;;186.00;;
1995;SDS011;38556;47.068;15.408;2022-09-09T00:11:26;202.67;;;190.77;;
1995;SDS011;38556;47.068;15.408;2022-09-09T00:14:00;201.03;;;189.13;;
1995;SDS011;38556;47.068;15.408;2022-09-09T00:16:34;206.67;;;194.37;;
1995;SDS011;38556;47.068;15.408;2022-09-09T00:19:07;212.43;;;200.43;;
1995;SDS011;38556;47.068;15.408;2022-09-09T00:21:46;207.87;;;195.73;;
1995;SDS011;38556;47.068;15.408;2022-09-09T00:24:24;201.47;;;189.33;;
1995;SDS011;38556;47.068;15.408;2022-09-09T00:26:57;207.83;;;195.50;;
1995;SDS011;38556;47.068;15.408;2022-09-09T00:29:33;203.20;;;191.30;;
1995;SDS011;38556;47.068;15.408;2022-09-09T00:32:09;210.87;;;198.43;;
1995;SDS011;38556;47.068;15.408;2022-09-09T00:34:39;216.40;;;204.00;;
1995;SDS011;38556;47.068;15.408;2022-09-09T00:37:17;211.70;;;199.50;;
1995;SDS011;38556;47.068;15.408;2022-09-09T00:39:46;228.33;;;215.63;;
1995;SDS011;38556;47.068;15.408;2022-09-09T00:42:18;216.00;;;203.40;;
1995;SDS011;38556;47.068;15.408;2022-09-09T00:44:51;224.90;;;212.10;;
1995;SDS011;38556;47.068;15.408;2022-09-09T00:47:33;219.13;;;206.53;;
1995;SDS011;38556;47.068;15.408;2022-09-09T00:50:14;211.50;;;199.30;;
1995;SDS011;38556;47.068;15.408;2022-09-09T00:52:58;214.33;;;201.93;;
1995;SDS011;38556;47.068;15.408;2022-09-09T00:55:39;218.77;;;206.17;;
1995;SDS011;38556;47.068;15.408;2022-09-09T00:58:12;215.50;;;202.90;;
1995;SDS011;38556;47.068;15.408;2022-09-09T01:00:41;209.47;;;197.00;;
1995;SDS011;38556;47.068;15.408;2022-09-09T01:03:14;201.50;;;189.40;;
1995;SDS011;38556;47.068;15.408;2022-09-09T01:05:54;212.23;;;200.27;;
1995;SDS011;38556;47.068;15.408;2022-09-09T01:11:33;228.87;;;215.77;;
1995;SDS011;38556;47.068;15.408;2022-09-09T01:14:10;224.80;;;212.30;;
1995;SDS011;38556;47.068;15.408;2022-09-09T01:16:45;217.00;;;204.30;;
1995;SDS011;38556;47.068;15.408;2022-09-09T01:19:15;233.40;;;220.47;;
1995;SDS011;38556;47.068;15.408;2022-09-09T01:21:54;230.43;;;217.73;;
1995;SDS011;38556;47.068;15.408;2022-09-09T01:24:31;231.60;;;218.57;;
1995;SDS011;38556;47.068;15.408;2022-09-09T01:27:05;229.23;;;216.40;;
1995;SDS011;38556;47.068;15.408;2022-09-09T01:29:35;220.77;;;208.17;;
1995;SDS011;38556;47.068;15.408;2022-09-09T01:32:35;213.90;;;201.70;;
1995;SDS011;38556;47.068;15.408;2022-09-09T01:35:05;211.43;;;199.33;;
1995;SDS011;38556;47.068;15.408;2022-09-09T01:37:37;216.93;;;204.60;;
1995;SDS011;38556;47.068;15.408;2022-09-09T01:40:05;206.23;;;194.23;;
1995;SDS011;38556;47.068;15.408;2022-09-09T01:42:34;218.77;;;205.97;;
1995;SDS011;38556;47.068;15.408;2022-09-09T01:45:02;215.40;;;203.00;;
1995;SDS011;38556;47.068;15.408;2022-09-09T01:47:32;221.93;;;209.37;;
1995;SDS011;38556;47.068;15.408;2022-09-09T01:49:59;211.27;;;198.97;;
1995;SDS011;38556;47.068;15.408;2022-09-09T01:52:28;205.00;;;193.00;;
1995;SDS011;38556;47.068;15.408;2022-09-09T01:54:56;212.97;;;200.63;;
1995;SDS011;38556;47.068;15.408;2022-09-09T01:57:24;219.77;;;207.10;;
1995;SDS011;38556;47.068;15.408;2022-09-09T02:00:00;223.27;;;210.53;;
1995;SDS011;38556;47.068;15.408;2022-09-09T02:02:32;225.37;;;212.57;;
1995;SDS011;38556;47.068;15.408;2022-09-09T02:05:10;235.33;;;221.50;;
1995;SDS011;38556;47.068;15.408;2022-09-09T02:07:48;255.60;;;240.60;;
1995;SDS011;38556;47.068;15.408;2022-09-09T02:10:17;250.17;;;235.27;;
1995;SDS011;38556;47.068;15.408;2022-09-09T02:12:49;249.20;;;234.40;;
1995;SDS011;38556;47.068;15.408;2022-09-09T02:15:23;254.83;;;239.73;;
1995;SDS011;38556;47.068;15.408;2022-09-09T02:17:56;253.33;;;238.00;;
1995;SDS011;38556;47.068;15.408;2022-09-09T02:20:25;248.77;;;233.50;;
1995;SDS011;38556;47.068;15.408;2022-09-09T02:22:54;247.40;;;232.10;;
1995;SDS011;38556;47.068;15.408;2022-09-09T02:25:23;254.80;;;239.40;;
1995;SDS011;38556;47.068;15.408;2022-09-09T02:27:53;253.83;;;238.53;;
1995;SDS011;38556;47.068;15.408;2022-09-09T02:30:20;244.30;;;229.10;;
1995;SDS011;38556;47.068;15.408;2022-09-09T02:32:50;250.83;;;235.53;;
1995;SDS011;38556;47.068;15.408;2022-09-09T02:35:22;254.33;;;238.93;;
1995;SDS011;38556;47.068;15.408;2022-09-09T02:37:53;251.40;;;236.10;;
1995;SDS011;38556;47.068;15.408;2022-09-09T02:40:24;253.30;;;237.90;;
1995;SDS011;38556;47.068;15.408;2022-09-09T02:42:52;249.87;;;234.43;;
1995;SDS011;38556;47.068;15.408;2022-09-09T02:45:22;265.17;;;249.33;;
1995;SDS011;38556;47.068;15.408;2022-09-09T02:47:55;250.60;;;235.20;;
1995;SDS011;38556;47.068;15.408;2022-09-09T02:50:30;264.37;;;248.40;;
1995;SDS011;38556;47.068;15.408;2022-09-09T02:53:04;255.40;;;239.60;;
1995;SDS011;38556;47.068;15.408;2022-09-09T02:55:39;248.33;;;233.33;;
1995;SDS011;38556;47.068;15.408;2022-09-09T02:58:13;251.53;;;236.03;;
1995;SDS011;38556;47.068;15.408;2022-09-09T03:00:43;250.33;;;234.60;;
1995;SDS011;38556;47.068;15.408;2022-09-09T03:03:15;249.47;;;234.37;;
1995;SDS011;38556;47.068;15.408;2022-09-09T03:05:43;240.00;;;225.10;;
1995;SDS011;38556;47.068;15.408;2022-09-09T03:08:11;240.00;;;225.50;;
1995;SDS011;38556;47.068;15.408;2022-09-09T03:10:38;246.30;;;231.23;;
1995;SDS011;38556;47.068;15.408;2022-09-09T03:13:06;251.70;;;236.70;;
1995;SDS011;38556;47.068;15.408;2022-09-09T03:15:34;241.50;;;226.87;;
1995;SDS011;38556;47.068;15.408;2022-09-09T03:18:02;243.20;;;228.60;;
1995;SDS011;38556;47.068;15.408;2022-09-09T03:20:31;252.20;;;236.80;;
1995;SDS011;38556;47.068;15.408;2022-09-09T03:22:59;250.30;;;235.30;;
1995;SDS011;38556;47.068;15.408;2022-09-09T03:25:28;260.73;;;245.00;;
1995;SDS011;38556;47.068;15.408;2022-09-09T03:27:55;249.17;;;234.40;;
1995;SDS011;38556;47.068;15.408;2022-09-09T03:30:23;246.83;;;232.40;;
1995;SDS011;38556;47.068;15.408;2022-09-09T03:32:52;237.90;;;222.90;;
1995;SDS011;38556;47.068;15.408;2022-09-09T03:35:20;235.17;;;220.80;;
1995;SDS011;38556;47.068;15.408;2022-09-09T03:37:49;241.27;;;226.90;;
1995;SDS011;38556;47.068;15.408;2022-09-09T03:40:17;245.63;;;231.13;;
1995;SDS011;38556;47.068;15.408;2022-09-09T03:42:44;246.27;;;232.20;;
1995;SDS011;38556;47.068;15.408;2022-09-09T03:45:12;242.23;;;228.23;;
1995;SDS011;38556;47.068;15.408;2022-09-09T03:47:39;241.13;;;227.23;;
1995;SDS011;38556;47.068;15.408;2022-09-09T03:50:07;242.73;;;228.73;;
1995;SDS011;38556;47.068;15.408;2022-09-09T03:52:36;236.00;;;222.00;;
1995;SDS011;38556;47.068;15.408;2022-09-09T03:55:06;240.67;;;226.23;;
1995;SDS011;38556;47.068;15.408;2022-09-09T03:57:35;230.97;;;217.27;;
1995;SDS011;38556;47.068;15.408;2022-09-09T04:00:02;243.23;;;229.03;;
1995;SDS011;38556;47.068;15.408;2022-09-09T04:02:30;244.67;;;229.80;;
1995;SDS011;38556;47.068;15.408;2022-09-09T04:04:57;250.27;;;235.83;;
1995;SDS011;38556;47.068;15.408;2022-09-09T04:07:25;252.20;;;237.80;;
1995;SDS011;38556;47.068;15.408;2022-09-09T04:09:53;242.90;;;228.50;;
1995;SDS011;38556;47.068;15.408;2022-09-09T04:12:22;247.47;;;232.60;;
1995;SDS011;38556;47.068;15.408;2022-09-09T04:14:49;248.90;;;233.90;;
1995;SDS011;38556;47.068;15.408;2022-09-09T04:17:16;272.87;;;257.37;;
1995;SDS011;38556;47.068;15.408;2022-09-09T04:19:44;269.20;;;253.10;;
1995;SDS011;38556;47.068;15.408;2022-09-09T04:22:11;256.00;;;241.00;;
1995;SDS011;38556;47.068;15.408;2022-09-09T04:24:38;270.00;;;254.40;;
1995;SDS011;38556;47.068;15.408;2022-09-09T04:27:06;259.20;;;243.70;;
1995;SDS011;38556;47.068;15.408;2022-09-09T04:29:35;268.70;;;253.37;;
1995;SDS011;38556;47.068;15.408;2022-09-09T04:32:02;268.43;;;253.30;;
1995;SDS011;38556;47.068;15.408;2022-09-09T04:34:30;249.47;;;234.73;;
1995;SDS011;38556;47.068;15.408;2022-09-09T04:36:58;247.20;;;232.27;;
1995;SDS011;38556;47.068;15.408;2022-09-09T04:39:26;236.63;;;222.37;;
1995;SDS011;38556;47.068;15.408;2022-09-09T04:41:54;248.93;;;234.23;;
1995;SDS011;38556;47.068;15.408;2022-09-09T04:44:21;262.70;;;247.30;;
1995;SDS011;38556;47.068;15.408;2022-09-09T04:46:50;246.33;;;232.23;;
1995;SDS011;38556;47.068;15.408;2022-09-09T04:49:17;241.37;;;227.17;;
1995;SDS011;38556;47.068;15.408;2022-09-09T04:51:45;248.33;;;234.33;;
1995;SDS011;38556;47.068;15.408;2022-09-09T04:54:12;252.63;;;237.53;;
1995;SDS011;38556;47.068;15.408;2022-09-09T04:56:41;233.57;;;220.17;;
1995;SDS011;38556;47.068;15.408;2022-09-09T04:59:08;242.87;;;228.43;;
1995;SDS011;38556;47.068;15.408;2022-09-09T05:01:36;246.83;;;231.43;;
1995;SDS011;38556;47.068;15.408;2022-09-09T05:04:05;241.83;;;227.90;;
1995;SDS011;38556;47.068;15.408;2022-09-09T05:06:32;229.07;;;215.77;;
1995;SDS011;38556;47.068;15.408;2022-09-09T05:09:01;229.73;;;217.00;;
1995;SDS011;38556;47.068;15.408;2022-09-09T05:11:29;235.37;;;222.33;;
1995;SDS011;38556;47.068;15.408;2022-09-09T05:14:01;224.73;;;211.37;;
1995;SDS011;38556;47.068;15.408;2022-09-09T05:16:29;223.53;;;210.53;;
1995;SDS011;38556;47.068;15.408;2022-09-09T05:18:56;233.87;;;220.50;;
1995;SDS011;38556;47.068;15.408;2022-09-09T05:21:26;241.70;;;227.20;;
1995;SDS011;38556;47.068;15.408;2022-09-09T05:23:53;240.97;;;227.13;;
1995;SDS011;38556;47.068;15.408;2022-09-09T05:26:21;248.37;;;234.60;;
1995;SDS011;38556;47.068;15.408;2022-09-09T05:28:50;236.37;;;222.83;;
1995;SDS011;38556;47.068;15.408;2022-09-09T05:31:18;237.07;;;223.47;;
1995;SDS011;38556;47.068;15.408;2022-09-09T05:33:46;255.43;;;240.30;;
1995;SDS011;38556;47.068;15.408;2022-09-09T05:36:15;247.47;;;233.27;;
1995;SDS011;38556;47.068;15.408;2022-09-09T05:38:46;241.63;;;227.50;;
1995;SDS011;38556;47.068;15.408;2022-09-09T05:41:14;220.90;;;207.80;;
1995;SDS011;38556;47.068;15.408;2022-09-09T05:43:42;228.30;;;215.20;;
1995;SDS011;38556;47.068;15.408;2022-09-09T05:46:13;244.80;;;230.50;;
1995;SDS011;38556;47.068;15.408;2022-09-09T05:48:42;222.23;;;209.13;;
1995;SDS011;38556;47.068;15.408;2022-09-09T05:51:12;224.90;;;211.20;;
1995;SDS011;38556;47.068;15.408;2022-09-09T05:53:42;229.10;;;215.00;;
1995;SDS011;38556;47.068;15.408;2022-09-09T05:56:12;241.53;;;227.17;;
1995;SDS011;38556;47.068;15.408;2022-09-09T05:58:40;245.17;;;231.00;;
1995;SDS011;38556;47.068;15.408;2022-09-09T06:01:10;246.97;;;232.77;;
1995;SDS011;38556;47.068;15.408;2022-09-09T06:03:39;249.90;;;235.60;;
1995;SDS011;38556;47.068;15.408;2022-09-09T06:06:08;231.50;;;218.23;;
1995;SDS011;38556;47.068;15.408;2022-09-09T06:08:37;245.33;;;231.23;;
1995;SDS011;38556;47.068;15.408;2022-09-09T06:11:07;242.43;;;228.67;;
1995;SDS011;38556;47.068;15.408;2022-09-09T06:13:37;243.00;;;229.43;;
1995;SDS011;38556;47.068;15.408;2022-09-09T06:16:05;249.23;;;235.43;;
1995;SDS011;38556;47.068;15.408;2022-09-09T06:18:34;242.53;;;228.83;;
1995;SDS011;38556;47.068;15.408;2022-09-09T06:21:02;237.13;;;223.43;;
1995;SDS011;38556;47.068;15.408;2022-09-09T06:23:31;232.87;;;219.30;;
1995;SDS011;38556;47.068;15.408;2022-09-09T06:26:04;248.97;;;234.97;;
1995;SDS011;38556;47.068;15.408;2022-09-09T06:28:32;231.90;;;218.10;;
1995;SDS011;38556;47.068;15.408;2022-09-09T06:31:01;239.10;;;225.70;;
1995;SDS011;38556;47.068;15.408;2022-09-09T06:33:32;256.00;;;241.50;;
1995;SDS011;38556;47.068;15.408;2022-09-09T06:36:00;252.37;;;238.20;;
1995;SDS011;38556;47.068;15.408;2022-09-09T06:38:28;254.40;;;240.00;;
1995;SDS011;38556;47.068;15.408;2022-09-09T06:40:56;248.47;;;234.47;;
1995;SDS011;38556;47.068;15.408;2022-09-09T06:43:25;245.30;;;231.03;;
1995;SDS011;38556;47.068;15.408;2022-09-09T06:45:53;247.30;;;233.73;;
1995;SDS011;38556;47.068;15.408;2022-09-09T06:48:23;252.90;;;239.00;;
1995;SDS011;38556;47.068;15.408;2022-09-09T06:50:51;249.13;;;235.60;;
1995;SDS011;38556;47.068;15.408;2022-09-09T06:53:26;240.07;;;225.77;;
1995;SDS011;38556;47.068;15.408;2022-09-09T06:55:53;240.93;;;227.40;;
1995;SDS011;38556;47.068;15.408;2022-09-09T06:58:20;238.00;;;224.50;;
1995;SDS011;38556;47.068;15.408;2022-09-09T07:00:49;234.00;;;220.40;;
1995;SDS011;38556;47.068;15.408;2022-09-09T07:03:16;233.77;;;220.20;;
1995;SDS011;38556;47.068;15.408;2022-09-09T07:05:54;238.87;;;225.67;;
1995;SDS011;38556;47.068;15.408;2022-09-09T07:08:22;234.60;;;221.03;;
1995;SDS011;38556;47.068;15.408;2022-09-09T07:10:51;247.70;;;234.00;;
1995;SDS011;38556;47.068;15.408;2022-09-09T07:13:19;246.83;;;233.23;;
1995;SDS011;38556;47.068;15.408;2022-09-09T07:15:51;254.10;;;240.23;;
1995;SDS011;38556;47.068;15.408;2022-09-09T07:18:18;252.73;;;239.13;;
1995;SDS011;38556;47.068;15.408;2022-09-09T07:20:53;261.77;;;247.90;;
1995;SDS011;38556;47.068;15.408;2022-09-09T07:23:22;248.30;;;234.50;;
1995;SDS011;38556;47.068;15.408;2022-09-09T07:25:50;249.27;;;234.77;;
1995;SDS011;38556;47.068;15.408;2022-09-09T07:28:18;247.30;;;233.50;;
1995;SDS011;38556;47.068;15.408;2022-09-09T07:30:52;245.57;;;231.20;;
1995;SDS011;38556;47.068;15.408;2022-09-09T07:33:20;236.53;;;222.93;;
1995;SDS011;38556;47.068;15.408;2022-09-09T07:35:47;236.10;;;222.50;;
1995;SDS011;38556;47.068;15.408;2022-09-09T07:38:15;234.27;;;220.63;;
1995;SDS011;38556;47.068;15.408;2022-09-09T07:40:44;248.70;;;234.67;;
1995;SDS011;38556;47.068;15.408;2022-09-09T07:43:11;238.40;;;224.50;;
1995;SDS011;38556;47.068;15.408;2022-09-09T07:45:39;249.10;;;234.90;;
1995;SDS011;38556;47.068;15.408;2022-09-09T07:48:08;241.93;;;227.80;;
1995;SDS011;38556;47.068;15.408;2022-09-09T07:50:37;247.20;;;233.13;;
1995;SDS011;38556;47.068;15.408;2022-09-09T07:53:04;242.70;;;228.27;;
1995;SDS011;38556;47.068;15.408;2022-09-09T07:55:33;254.63;;;239.97;;
1995;SDS011;38556;47.068;15.408;2022-09-09T07:58:00;252.57;;;238.10;;
1995;SDS011;38556;47.068;15.408;2022-09-09T08:00:28;229.27;;;215.97;;
1995;SDS011;38556;47.068;15.408;2022-09-09T08:02:55;237.50;;;224.00;;
1995;SDS011;38556;47.068;15.408;2022-09-09T08:05:22;247.80;;;234.17;;
1995;SDS011;38556;47.068;15.408;2022-09-09T08:07:50;247.60;;;233.70;;
1995;SDS011;38556;47.068;15.408;2022-09-09T08:10:17;246.60;;;232.60;;
1995;SDS011;38556;47.068;15.408;2022-09-09T08:12:46;251.57;;;237.67;;
1995;SDS011;38556;47.068;15.408;2022-09-09T08:15:14;234.63;;;221.43;;
1995;SDS011;38556;47.068;15.408;2022-09-09T08:17:41;246.40;;;233.30;;
1995;SDS011;38556;47.068;15.408;2022-09-09T08:20:09;255.53;;;241.40;;
1995;SDS011;38556;47.068;15.408;2022-09-09T08:22:36;241.77;;;228.13;;
1995;SDS011;38556;47.068;15.408;2022-09-09T08:25:04;236.23;;;222.50;;
1995;SDS011;38556;47.068;15.408;2022-09-09T08:27:33;254.97;;;240.60;;
1995;SDS011;38556;47.068;15.408;2022-09-09T08:30:03;243.13;;;228.40;;
1995;SDS011;38556;47.068;15.408;2022-09-09T08:32:30;263.10;;;248.40;;
1995;SDS011;38556;47.068;15.408;2022-09-09T08:34:58;254.37;;;239.70;;
1995;SDS011;38556;47.068;15.408;2022-09-09T08:37:25;238.80;;;225.37;;
1995;SDS011;38556;47.068;15.408;2022-09-09T08:39:53;362.27;;;330.67;;
1995;SDS011;38556;47.068;15.408;2022-09-09T08:42:23;351.73;;;321.67;;
1995;SDS011;38556;47.068;15.408;2022-09-09T08:48:01;263.93;;;246.63;;
1995;SDS011;38556;47.068;15.408;2022-09-09T08:50:41;255.57;;;241.10;;
1995;SDS011;38556;47.068;15.408;2022-09-09T08:53:14;266.80;;;251.47;;
1995;SDS011;38556;47.068;15.408;2022-09-09T08:55:48;256.23;;;241.97;;
1995;SDS011;38556;47.068;15.408;2022-09-09T08:58:17;257.03;;;243.23;;
1995;SDS011;38556;47.068;15.408;2022-09-09T09:00:51;260.50;;;245.90;;
1995;SDS011;38556;47.068;15.408;2022-09-09T09:03:32;266.93;;;252.03;;
1995;SDS011;38556;47.068;15.408;2022-09-09T09:06:06;272.57;;;257.87;;
1995;SDS011;38556;47.068;15.408;2022-09-09T09:08:46;262.67;;;248.50;;
1995;SDS011;38556;47.068;15.408;2022-09-09T09:11:24;254.90;;;240.87;;
1995;SDS011;38556;47.068;15.408;2022-09-09T09:13:52;254.73;;;240.83;;
1995;SDS011;38556;47.068;15.408;2022-09-09T09:16:26;254.30;;;240.20;;
1995;SDS011;38556;47.068;15.408;2022-09-09T09:18:57;265.87;;;251.57;;
1995;SDS011;38556;47.068;15.408;2022-09-09T09:21:28;247.30;;;234.10;;
1995;SDS011;38556;47.068;15.408;2022-09-09T09:24:01;248.80;;;235.10;;
1995;SDS011;38556;47.068;15.408;2022-09-09T09:26:32;249.33;;;235.53;;
1995;SDS011;38556;47.068;15.408;2022-09-09T09:29:03;259.10;;;244.93;;
1995;SDS011;38556;47.068;15.408;2022-09-09T09:31:41;249.07;;;235.13;;
1995;SDS011;38556;47.068;15.408;2022-09-09T09:34:10;255.60;;;241.57;;
1995;SDS011;38556;47.068;15.408;2022-09-09T09:36:39;249.60;;;236.00;;
1995;SDS011;38556;47.068;15.408;2022-09-09T09:39:09;240.00;;;226.80;;
1995;SDS011;38556;47.068;15.408;2022-09-09T09:41:38;249.80;;;236.40;;
1995;SDS011;38556;47.068;15.408;2022-09-09T09:44:19;255.60;;;241.80;;
1995;SDS011;38556;47.068;15.408;2022-09-09T09:46:51;262.33;;;248.13;;
1995;SDS011;38556;47.068;15.408;2022-09-09T09:49:19;263.73;;;249.43;;
1995;SDS011;38556;47.068;15.408;2022-09-09T09:51:46;270.47;;;256.33;;
1995;SDS011;38556;47.068;15.408;2022-09-09T09:54:15;264.90;;;250.40;;
1995;SDS011;38556;47.068;15.408;2022-09-09T09:56:48;258.10;;;244.17;;
1995;SDS011;38556;47.068;15.408;2022-09-09T09:59:23;273.00;;;258.30;;
1995;SDS011;38556;47.068;15.408;2022-09-09T10:02:14;264.67;;;250.30;;
1995;SDS011;38556;47.068;15.408;2022-09-09T10:04:43;250.63;;;236.73;;
1995;SDS011;38556;47.068;15.408;2022-09-09T10:07:12;254.50;;;240.60;;
1995;SDS011;38556;47.068;15.408;2022-09-09T10:09:43;242.80;;;229.67;;
1995;SDS011;38556;47.068;15.408;2022-09-09T10:12:14;242.73;;;229.27;;
1995;SDS011;38556;47.068;15.408;2022-09-09T10:14:58;249.87;;;236.40;;
1995;SDS011;38556;47.068;15.408;2022-09-09T10:17:36;255.37;;;241.67;;
1995;SDS011;38556;47.068;15.408;2022-09-09T10:20:15;247.40;;;233.73;;
1995;SDS011;38556;47.068;15.408;2022-09-09T10:22:50;232.73;;;219.73;;
1995;SDS011;38556;47.068;15.408;2022-09-09T10:25:24;245.50;;;232.10;;
1995;SDS011;38556;47.068;15.408;2022-09-09T10:28:25;248.43;;;234.73;;
1995;SDS011;38556;47.068;15.408;2022-09-09T10:31:12;249.57;;;236.20;;
1995;SDS011;38556;47.068;15.408;2022-09-09T10:33:51;246.33;;;232.57;;
1995;SDS011;38556;47.068;15.408;2022-09-09T10:36:29;238.00;;;224.80;;
1995;SDS011;38556;47.068;15.408;2022-09-09T10:38:57;237.63;;;224.53;;
1995;SDS011;38556;47.068;15.408;2022-09-09T10:41:36;238.93;;;225.83;;
1995;SDS011;38556;47.068;15.408;2022-09-09T10:44:17;231.60;;;218.70;;
1995;SDS011;38556;47.068;15.408;2022-09-09T10:46:58;250.10;;;236.23;;
1995;SDS011;38556;47.068;15.408;2022-09-09T10:50:03;248.70;;;235.10;;
1995;SDS011;38556;47.068;15.408;2022-09-09T10:52:48;258.63;;;244.73;;
1995;SDS011;38556;47.068;15.408;2022-09-09T10:55:26;257.60;;;243.00;;
1995;SDS011;38556;47.068;15.408;2022-09-09T10:57:58;258.23;;;243.37;;
1995;SDS011;38556;47.068;15.408;2022-09-09T11:00:31;271.40;;;252.87;;
1995;SDS011;38556;47.068;15.408;2022-09-09T11:03:05;289.03;;;269.90;;
1995;SDS011;38556;47.068;15.408;2022-09-09T11:05:38;269.27;;;252.60;;
1995;SDS011;38556;47.068;15.408;2022-09-09T11:08:10;250.57;;;235.93;;
1995;SDS011;38556;47.068;15.408;2022-09-09T11:10:43;257.27;;;242.20;;
1995;SDS011;38556;47.068;15.408;2022-09-09T11:13:14;231.27;;;218.37;;
1995;SDS011;38556;47.068;15.408;2022-09-09T11:15:45;234.73;;;221.50;;
1995;SDS011;38556;47.068;15.408;2022-09-09T11:18:19;238.50;;;225.43;;
1995;SDS011;38556;47.068;15.408;2022-09-09T11:20:51;239.43;;;226.63;;
1995;SDS011;38556;47.068;15.408;2022-09-09T11:23:24;228.20;;;215.50;;
1995;SDS011;38556;47.068;15.408;2022-09-09T11:25:56;229.60;;;216.50;;
1995;SDS011;38556;47.068;15.408;2022-09-09T11:28:32;236.23;;;222.93;;
1995;SDS011;38556;47.068;15.408;2022-09-09T11:31:21;224.97;;;212.23;;
1995;SDS011;38556;47.068;15.408;2022-09-09T11:34:08;221.23;;;208.23;;
1995;SDS011;38556;47.068;15.408;2022-09-09T11:37:06;232.53;;;219.23;;
1995;SDS011;38556;47.068;15.408;2022-09-09T11:40:07;245.13;;;231.93;;
1995;SDS011;38556;47.068;15.408;2022-09-09T11:42:41;227.60;;;215.00;;
1995;SDS011;38556;47.068;15.408;2022-09-09T11:45:09;248.00;;;234.70;;
1995;SDS011;38556;47.068;15.408;2022-09-09T11:47:51;230.67;;;218.33;;
1995;SDS011;38556;47.068;15.408;2022-09-09T11:50:27;228.20;;;215.70;;
1995;SDS011;38556;47.068;15.408;2022-09-09T11:53:15;222.37;;;209.97;;
1995;SDS011;38556;47.068;15.408;2022-09-09T11:56:05;215.80;;;203.90;;
1995;SDS011;38556;47.068;15.408;2022-09-09T11:58:37;223.47;;;211.00;;
1995;SDS011;38556;47.068;15.408;2022-09-09T12:01:13;210.43;;;198.23;;
1995;SDS011;38556;47.068;15.408;2022-09-09T12:03:43;249.03;;;232.97;;
1995;SDS011;38556;47.068;15.408;2022-09-09T12:06:13;263.83;;;248.03;;
1995;SDS011;38556;47.068;15.408;2022-09-09T12:08:48;241.47;;;228.03;;
1995;SDS011;38556;47.068;15.408;2022-09-09T12:11:25;236.40;;;222.47;;
1995;SDS011;38556;47.068;15.408;2022-09-09T12:13:54;232.90;;;219.10;;
1995;SDS011;38556;47.068;15.408;2022-09-09T12:16:29;226.57;;;213.30;;
1995;SDS011;38556;47.068;15.408;2022-09-09T12:19:03;224.93;;;212.03;;
1995;SDS011;38556;47.068;15.408;2022-09-09T12:21:34;226.30;;;213.50;;
1995;SDS011;38556;47.068;15.408;2022-09-09T12:24:09;217.70;;;205.80;;
1995;SDS011;38556;47.068;15.408;2022-09-09T12:26:38;233.37;;;220.40;;
1995;SDS011;38556;47.068;15.408;2022-09-09T12:29:12;233.33;;;220.53;;
1995;SDS011;38556;47.068;15.408;2022-09-09T12:31:51;242.77;;;229.20;;
1995;SDS011;38556;47.068;15.408;2022-09-09T12:34:28;240.73;;;227.17;;
1995;SDS011;38556;47.068;15.408;2022-09-09T12:37:04;232.40;;;219.00;;
1995;SDS011;38556;47.068;15.408;2022-09-09T12:39:44;226.20;;;213.07;;
1995;SDS011;38556;47.068;15.408;2022-09-09T12:42:15;234.07;;;219.93;;
1995;SDS011;38556;47.068;15.408;2022-09-09T12:44:53;239.13;;;224.97;;
1995;SDS011;38556;47.068;15.408;2022-09-09T12:47:22;229.53;;;216.47;;
1995;SDS011;38556;47.068;15.408;2022-09-09T12:50:00;226.20;;;213.40;;
1995;SDS011;38556;47.068;15.408;2022-09-09T12:52:29;241.50;;;227.90;;
1995;SDS011;38556;47.068;15.408;2022-09-09T12:55:01;232.20;;;219.00;;
1995;SDS011;38556;47.068;15.408;2022-09-09T12:57:33;237.50;;;224.33;;
1995;SDS011;38556;47.068;15.408;2022-09-09T13:00:07;244.07;;;231.10;;
1995;SDS011;38556;47.068;15.408;2022-09-09T13:02:45;243.20;;;230.00;;
1995;SDS011;38556;47.068;15.408;2022-09-09T13:05:17;247.57;;;234.30;;
1995;SDS011;38556;47.068;15.408;2022-09-09T13:07:46;236.70;;;223.60;;
1995;SDS011;38556;47.068;15.408;2022-09-09T13:10:21;251.37;;;237.87;;
1995;SDS011;38556;47.068;15.408;2022-09-09T13:12:52;241.97;;;228.60;;
1995;SDS011;38556;47.068;15.408;2022-09-09T13:15:21;241.50;;;227.93;;
1995;SDS011;38556;47.068;15.408;2022-09-09T13:17:52;221.80;;;208.90;;
1995;SDS011;38556;47.068;15.408;2022-09-09T13:20:22;234.03;;;221.30;;
1995;SDS011;38556;47.068;15.408;2022-09-09T13:22:51;240.77;;;227.53;;
1995;SDS011;38556;47.068;15.408;2022-09-09T13:25:23;246.23;;;233.30;;
1995;SDS011;38556;47.068;15.408;2022-09-09T13:27:53;237.53;;;224.13;;
1995;SDS011;38556;47.068;15.408;2022-09-09T13:30:24;232.90;;;220.17;;
1995;SDS011;38556;47.068;15.408;2022-09-09T13:33:04;244.90;;;231.70;;
1995;SDS011;38556;47.068;15.408;2022-09-09T13:35:46;249.40;;;236.10;;
1995;SDS011;38556;47.068;15.408;2022-09-09T13:38:15;245.27;;;232.07;;
1995;SDS011;38556;47.068;15.408;2022-09-09T13:40:58;246.13;;;233.23;;
1995;SDS011;38556;47.068;15.408;2022-09-09T13:43:30;250.43;;;237.37;;
1995;SDS011;38556;47.068;15.408;2022-09-09T13:46:01;247.63;;;234.53;;
1995;SDS011;38556;47.068;15.408;2022-09-09T13:48:30;245.67;;;232.57;;
1995;SDS011;38556;47.068;15.408;2022-09-09T13:51:00;241.93;;;228.50;;
1995;SDS011;38556;47.068;15.408;2022-09-09T13:53:30;244.30;;;230.90;;
1995;SDS011;38556;47.068;15.408;2022-09-09T13:56:00;238.07;;;225.37;;
1995;SDS011;38556;47.068;15.408;2022-09-09T13:58:27;236.13;;;222.83;;
1995;SDS011;38556;47.068;15.408;2022-09-09T14:00:55;242.00;;;228.70;;
1995;SDS011;38556;47.068;15.408;2022-09-09T14:03:22;242.97;;;229.67;;
1995;SDS011;38556;47.068;15.408;2022-09-09T14:05:50;241.27;;;227.97;;
1995;SDS011;38556;47.068;15.408;2022-09-09T14:08:20;239.27;;;226.17;;
1995;SDS011;38556;47.068;15.408;2022-09-09T14:10:50;240.17;;;227.03;;
1995;SDS011;38556;47.068;15.408;2022-09-09T14:13:20;230.80;;;218.03;;
1995;SDS011;38556;47.068;15.408;2022-09-09T14:15:48;238.93;;;226.03;;
1995;SDS011;38556;47.068;15.408;2022-09-09T14:18:15;239.70;;;226.70;;
1995;SDS011;38556;47.068;15.408;2022-09-09T14:20:44;227.93;;;215.03;;
1995;SDS011;38556;47.068;15.408;2022-09-09T14:23:11;251.83;;;238.00;;
1995;SDS011;38556;47.068;15.408;2022-09-09T14:25:41;240.63;;;227.63;;
1995;SDS011;38556;47.068;15.408;2022-09-09T14:28:09;254.53;;;240.50;;